createdAt,value
2022-11-16T00:02:53.704Z,21.4
2022-11-16T00:13:37.399Z,22.1
2022-11-16T00:18:59.725Z,25.8
2022-11-16T00:24:36.122Z,26.9
2022-11-16T00:30:13.940Z,26.2
2022-11-16T00:35:35.999Z,24.3
2022-11-16T00:40:42.309Z,23.1
2022-11-16T00:46:19.328Z,22.4
2022-11-16T00:51:57.085Z,21.8
2022-11-16T00:57:33.946Z,21.6
2022-11-16T01:08:02.496Z,24.1
2022-11-16T01:13:25.078Z,26.9
2022-11-16T01:19:02.779Z,26.6
2022-11-16T01:24:24.774Z,25.7
2022-11-16T01:30:02.200Z,23.6
2022-11-16T01:35:38.254Z,22.6
2022-11-16T01:41:17.010Z,21.9
2022-11-16T01:46:53.581Z,21.6
2022-11-16T01:52:15.750Z,21.2
2022-11-16T01:57:06.803Z,22.1
2022-11-16T02:02:29.123Z,25.3
2022-11-16T02:07:50.329Z,27.4
2022-11-16T02:12:57.148Z,26.4
2022-11-16T02:18:34.118Z,25.4
2022-11-16T02:24:11.355Z,23.3
2022-11-16T02:29:48.859Z,22.4
2022-11-16T02:35:25.313Z,21.8
2022-11-16T02:40:47.510Z,21.3
2022-11-16T02:46:23.950Z,21
2022-11-16T02:51:30.614Z,22.8
2022-11-16T02:56:52.244Z,25.8
2022-11-16T03:02:32.772Z,27.5
2022-11-16T03:08:09.643Z,26.3
2022-11-16T03:13:46.090Z,24.8
2022-11-16T03:19:24.792Z,23
2022-11-16T03:25:01.666Z,22.1
2022-11-16T03:30:23.938Z,21.5
2022-11-16T03:36:01.373Z,21.2
2022-11-16T03:41:38.280Z,20.8
2022-11-16T03:46:44.274Z,24.2
2022-11-16T03:52:06.241Z,26.4
2022-11-16T03:57:47.483Z,21.6
2022-11-16T04:02:38.272Z,24.5
2022-11-16T04:08:15.827Z,26.9
2022-11-16T04:13:53.398Z,26.8
2022-11-16T04:19:29.684Z,25.8
2022-11-16T04:24:51.093Z,23.5
2022-11-16T04:30:29.297Z,22.4
2022-11-16T04:36:06.143Z,21.8
2022-11-16T04:41:43.387Z,21.3
2022-11-16T04:47:21.113Z,20.9
2022-11-16T04:52:42.345Z,23.4
2022-11-16T04:58:04.867Z,26.3
2022-11-16T05:03:17.541Z,27.8
2022-11-16T05:08:42.012Z,26.4
2022-11-16T05:14:04.325Z,25.1
2022-11-16T05:19:26.274Z,23.1
2022-11-16T05:24:47.577Z,22.1
2022-11-16T05:29:54.593Z,21.5
2022-11-16T05:40:22.703Z,20.9
2022-11-16T05:45:43.952Z,23.7
2022-11-16T05:51:21.471Z,26.4
2022-11-16T05:56:58.831Z,27.4
2022-11-16T06:02:04.510Z,26.3
2022-11-16T06:07:43.920Z,24.2
2022-11-16T06:13:21.316Z,22.6
2022-11-16T06:19:07.788Z,21.8
2022-11-16T06:24:55.734Z,21.2
2022-11-16T06:30:37.904Z,20.9
2022-11-16T06:36:05.827Z,22.1
2022-11-16T06:41:45.901Z,25.5
2022-11-16T06:47:23.251Z,27.6
2022-11-16T06:59:44.087Z,24.3
2022-11-16T07:05:22.172Z,22.7
2022-11-16T07:11:04.118Z,21.8
2022-11-16T07:16:43.345Z,21.2
2022-11-16T07:22:24.490Z,20.9
2022-11-16T07:27:34.337Z,22
2022-11-16T07:33:15.810Z,25.6
2022-11-16T07:38:53.525Z,27.6
2022-11-16T07:44:28.772Z,26.8
2022-11-16T07:50:40.964Z,25.3
2022-11-16T07:56:17.841Z,22.9
2022-11-16T08:02:04.039Z,22.1
2022-11-16T08:07:47.038Z,21.4
2022-11-16T08:13:25.978Z,21.1
2022-11-16T08:18:49.484Z,21.4
2022-11-16T08:24:31.756Z,25.4
2022-11-16T08:30:09.264Z,27.6
2022-11-16T08:35:32.780Z,26.7
2022-11-16T08:41:18.640Z,25.5
2022-11-16T08:46:45.160Z,24.2
2022-11-16T08:53:53.131Z,23.1
2022-11-16T08:59:32.653Z,22.8
2022-11-16T09:05:10.883Z,26.3
2022-11-16T09:10:50.050Z,27.3
2022-11-16T09:17:53.389Z,26.4
2022-11-16T09:23:32.001Z,24.6
2022-11-16T09:29:10.925Z,23.3
2022-11-16T09:34:34.433Z,22.4
2022-11-16T09:42:09.486Z,24.8
2022-11-16T09:47:55.454Z,27.9
2022-11-16T09:55:02.270Z,26.9
2022-11-16T10:00:56.366Z,25.2
2022-11-16T10:06:39.712Z,23.8
2022-11-16T10:12:18.539Z,22.8
2022-11-16T10:17:57.684Z,21.9
2022-11-16T10:23:36.580Z,21.3
2022-11-16T10:29:02.992Z,20.8
2022-11-16T10:34:34.529Z,20.3
2022-11-16T10:40:13.991Z,19.9
2022-11-16T10:45:28.627Z,19.7
2022-11-16T10:51:11.843Z,19.4
2022-11-16T10:56:56.524Z,20.6
2022-11-16T11:02:42.897Z,25.8
2022-11-16T11:08:25.241Z,28.3
2022-11-16T11:14:05.912Z,27.1
2022-11-16T11:19:51.178Z,25.7
2022-11-16T11:26:05.944Z,24.3
2022-11-16T11:31:44.804Z,23
2022-11-16T11:37:29.503Z,24
2022-11-16T11:44:42.744Z,27.5
2022-11-16T11:51:33.280Z,27.4
2022-11-16T11:57:16.598Z,25.9
2022-11-16T12:02:44.401Z,24.5
2022-11-16T12:08:08.553Z,23.4
2022-11-16T12:13:54.467Z,22.6
2022-11-16T12:19:32.570Z,25.6
2022-11-16T12:25:18.050Z,28.4
2022-11-16T12:30:59.212Z,27.3
2022-11-16T12:36:37.664Z,26.1
2022-11-16T12:42:19.944Z,24.7
2022-11-16T12:48:02.535Z,23.6
2022-11-16T12:53:45.456Z,22.7
2022-11-16T12:59:41.547Z,26.4
2022-11-16T13:05:20.663Z,27.9
2022-11-16T13:11:04.226Z,27
2022-11-16T13:17:14.175Z,25.7
2022-11-16T13:22:58.778Z,24.3
2022-11-16T13:28:37.750Z,23.3
2022-11-16T13:34:23.350Z,22.6
2022-11-16T13:40:01.780Z,26.9
2022-11-16T13:45:42.118Z,27.8
2022-11-16T13:52:17.090Z,26.8
2022-11-16T13:59:33.223Z,25
2022-11-16T14:05:15.290Z,23.8
2022-11-16T14:10:40.433Z,22.9
2022-11-16T14:16:25.991Z,25.3
2022-11-16T14:21:48.562Z,28.4
2022-11-16T14:27:30.554Z,27.6
2022-11-16T14:33:14.521Z,26.4
2022-11-16T14:38:52.671Z,25.1
2022-11-16T14:44:43.647Z,23.9
2022-11-16T14:50:06.145Z,22.9
2022-11-16T14:55:46.184Z,25
2022-11-16T15:01:25.178Z,28.2
2022-11-16T15:06:55.728Z,27.6
2022-11-16T15:12:33.697Z,26.5
2022-11-16T15:18:01.570Z,25.1
2022-11-16T15:23:08.604Z,24
2022-11-16T15:29:06.376Z,23.1
2022-11-16T15:34:44.984Z,23.8
2022-11-16T15:40:27.772Z,27.6
2022-11-16T15:46:39.671Z,27.7
2022-11-16T15:52:07.136Z,26.7
2022-11-16T15:57:15.551Z,25.4
2022-11-16T16:02:54.205Z,24.3
2022-11-16T16:08:17.553Z,23.3
2022-11-16T16:13:24.811Z,22.7
2022-11-16T16:18:47.606Z,26.7
2022-11-16T16:24:31.187Z,28
2022-11-16T16:29:45.084Z,27.3
2022-11-16T16:35:27.978Z,25.9
2022-11-16T16:40:51.099Z,24.7
2022-11-16T16:46:17.618Z,23.8
2022-11-16T16:51:49.610Z,22.8
2022-11-16T16:57:01.502Z,25.8
2022-11-16T17:02:30.087Z,28.5
2022-11-16T17:07:58.588Z,27.6
2022-11-16T17:13:25.888Z,26.5
2022-11-16T17:18:57.384Z,25.1
2022-11-16T17:24:24.152Z,24
2022-11-16T17:30:04.713Z,23.1
2022-11-16T17:35:16.558Z,24.9
2022-11-16T17:40:55.687Z,27.9
2022-11-16T17:46:38.228Z,27.7
2022-11-16T17:51:49.871Z,26.6
2022-11-16T17:57:34.024Z,25.3
2022-11-16T18:03:12.741Z,24.1
2022-11-16T18:09:00.830Z,23.2
2022-11-16T18:14:30.103Z,24.4
2022-11-16T18:20:34.639Z,28
2022-11-16T18:26:13.099Z,27.7
2022-11-16T18:31:51.864Z,26.7
2022-11-16T18:36:59.918Z,25.3
2022-11-16T18:42:11.752Z,24.2
2022-11-16T18:47:50.062Z,23.4
2022-11-16T18:53:32.625Z,22.4
2022-11-16T18:59:26.877Z,26.7
2022-11-16T19:05:08.682Z,28
2022-11-16T19:10:37.969Z,27.2
2022-11-16T19:16:16.302Z,25.8
2022-11-16T19:22:32.155Z,24.6
2022-11-16T19:27:39.906Z,23.5
2022-11-16T19:33:18.435Z,22.6
2022-11-16T19:38:44.536Z,26.3
2022-11-16T19:44:22.731Z,28.3
2022-11-16T19:49:52.563Z,27.4
2022-11-16T19:55:15.775Z,26.1
2022-11-16T20:00:54.483Z,24.9
2022-11-16T20:06:33.582Z,23.8
2022-11-16T20:11:56.757Z,22.8
2022-11-16T20:17:34.559Z,23.6
2022-11-16T20:23:13.036Z,27.4
2022-11-16T20:28:51.805Z,27.8
2022-11-16T20:34:36.247Z,26.9
2022-11-16T20:39:59.275Z,25.4
2022-11-16T20:45:23.750Z,24.3
2022-11-16T20:50:46.142Z,23.3
2022-11-16T20:56:29.369Z,24.1
2022-11-16T21:02:14.250Z,27.8
2022-11-16T21:07:53.105Z,27.6
2022-11-16T21:13:33.872Z,26.8
2022-11-16T21:19:16.962Z,25.3
2022-11-16T21:25:25.753Z,24
2022-11-16T21:30:54.946Z,23.1
2022-11-16T21:36:37.477Z,23.9
2022-11-16T21:42:16.110Z,27.6
2022-11-16T21:47:38.722Z,27.8
2022-11-16T21:53:35.391Z,26.9
2022-11-16T21:58:58.407Z,25.4
2022-11-16T22:04:36.777Z,24.3
2022-11-16T22:10:05.581Z,23.2
2022-11-16T22:15:43.712Z,23.1
2022-11-16T22:21:06.386Z,27.1
2022-11-16T22:26:31.568Z,27.9
2022-11-16T22:32:44.716Z,27.1
2022-11-16T22:38:23.561Z,25.6
2022-11-16T22:44:06.134Z,24.4
2022-11-16T22:49:46.238Z,23.4
2022-11-16T22:55:08.967Z,22.5
2022-11-16T23:00:31.607Z,26.6
2022-11-16T23:06:10.405Z,28.1
2022-11-16T23:11:39.487Z,27.2
2022-11-16T23:17:16.892Z,25.9
2022-11-16T23:22:58.307Z,24.6
2022-11-16T23:28:36.865Z,23.5
2022-11-16T23:34:22.136Z,22.7
2022-11-16T23:40:00.724Z,26.1
2022-11-16T23:45:22.949Z,28.3
2022-11-16T23:50:45.375Z,27.3
2022-11-16T23:56:08.476Z,26.1
